sensor_id;sensor_type;location;lat;lon;timestamp;temperature;humidity
28069;DHT22;15382;47.578;8.086;2022-09-17T00:09:55;10.40;99.90
28069;DHT22;15382;47.578;8.086;2022-09-17T00:19:56;10.10;99.90
28069;DHT22;15382;47.578;8.086;2022-09-17T00:29:57;9.90;99.90
28069;DHT22;15382;47.578;8.086;2022-09-17T00:39:58;9.80;99.90
28069;DHT22;15382;47.578;8.086;2022-09-17T00:50:03;9.90;99.90
28069;DHT22;15382;47.578;8.086;2022-09-17T01:00:05;9.80;99.90
28069;DHT22;15382;47.578;8.086;2022-09-17T01:31:01;9.40;99.90
28069;DHT22;15382;47.578;8.086;2022-09-17T01:41:29;9.30;99.90
28069;DHT22;15382;47.578;8.086;2022-09-17T01:51:42;9.20;99.90
28069;DHT22;15382;47.578;8.086;2022-09-17T02:01:49;9.10;99.90
28069;DHT22;15382;47.578;8.086;2022-09-17T02:11:54;8.90;99.90
28069;DHT22;15382;47.578;8.086;2022-09-17T02:32:14;8.90;99.90
28069;DHT22;15382;47.578;8.086;2022-09-17T03:02:39;8.80;99.90
28069;DHT22;15382;47.578;8.086;2022-09-17T03:12:42;8.90;99.90
28069;DHT22;15382;47.578;8.086;2022-09-17T03:22:43;8.80;99.90
28069;DHT22;15382;47.578;8.086;2022-09-17T03:32:44;8.90;99.90
28069;DHT22;15382;47.578;8.086;2022-09-17T03:42:45;8.90;99.90
28069;DHT22;15382;47.578;8.086;2022-09-17T03:52:46;8.90;99.90
28069;DHT22;15382;47.578;8.086;2022-09-17T04:02:47;8.90;99.90
28069;DHT22;15382;47.578;8.086;2022-09-17T04:12:48;8.90;99.90
28069;DHT22;15382;47.578;8.086;2022-09-17T04:22:49;9.00;99.90
28069;DHT22;15382;47.578;8.086;2022-09-17T04:32:49;9.00;99.90
28069;DHT22;15382;47.578;8.086;2022-09-17T04:42:57;9.00;99.90
28069;DHT22;15382;47.578;8.086;2022-09-17T04:52:59;8.90;99.90
28069;DHT22;15382;47.578;8.086;2022-09-17T05:02:59;8.90;99.90
28069;DHT22;15382;47.578;8.086;2022-09-17T05:13:00;9.00;99.90
28069;DHT22;15382;47.578;8.086;2022-09-17T05:23:01;8.90;99.90
28069;DHT22;15382;47.578;8.086;2022-09-17T05:33:04;9.00;99.90
28069;DHT22;15382;47.578;8.086;2022-09-17T05:43:06;9.00;99.90
28069;DHT22;15382;47.578;8.086;2022-09-17T05:53:10;9.00;99.90
28069;DHT22;15382;47.578;8.086;2022-09-17T06:03:13;8.90;99.90
28069;DHT22;15382;47.578;8.086;2022-09-17T06:13:18;8.80;99.90
28069;DHT22;15382;47.578;8.086;2022-09-17T06:23:20;8.70;99.90
28069;DHT22;15382;47.578;8.086;2022-09-17T06:33:22;8.80;99.90
28069;DHT22;15382;47.578;8.086;2022-09-17T06:43:23;9.10;99.90
28069;DHT22;15382;47.578;8.086;2022-09-17T06:53:24;9.30;99.90
28069;DHT22;15382;47.578;8.086;2022-09-17T07:03:25;10.70;99.90
28069;DHT22;15382;47.578;8.086;2022-09-17T07:13:26;10.80;99.90
28069;DHT22;15382;47.578;8.086;2022-09-17T07:23:29;10.70;99.90
28069;DHT22;15382;47.578;8.086;2022-09-17T07:33:31;10.50;99.90
28069;DHT22;15382;47.578;8.086;2022-09-17T07:43:34;10.50;99.90
28069;DHT22;15382;47.578;8.086;2022-09-17T07:53:35;10.20;99.90
28069;DHT22;15382;47.578;8.086;2022-09-17T08:03:37;10.20;99.90
28069;DHT22;15382;47.578;8.086;2022-09-17T08:13:39;11.30;99.90
28069;DHT22;15382;47.578;8.086;2022-09-17T08:23:41;10.90;99.90
28069;DHT22;15382;47.578;8.086;2022-09-17T08:33:42;11.90;99.90
28069;DHT22;15382;47.578;8.086;2022-09-17T09:14:57;12.30;99.90
28069;DHT22;15382;47.578;8.086;2022-09-17T09:25:18;11.80;99.90
28069;DHT22;15382;47.578;8.086;2022-09-17T09:35:29;12.30;99.90
28069;DHT22;15382;47.578;8.086;2022-09-17T09:46:08;12.00;99.90
28069;DHT22;15382;47.578;8.086;2022-09-17T10:06:17;12.90;99.90
28069;DHT22;15382;47.578;8.086;2022-09-17T10:16:24;12.30;99.90
28069;DHT22;15382;47.578;8.086;2022-09-17T10:26:28;12.20;99.90
28069;DHT22;15382;47.578;8.086;2022-09-17T10:36:59;12.80;99.90
28069;DHT22;15382;47.578;8.086;2022-09-17T10:47:16;12.70;99.90
28069;DHT22;15382;47.578;8.086;2022-09-17T10:57:30;14.50;99.90
28069;DHT22;15382;47.578;8.086;2022-09-17T11:07:43;14.40;99.90
28069;DHT22;15382;47.578;8.086;2022-09-17T11:18:41;13.70;99.90
28069;DHT22;15382;47.578;8.086;2022-09-17T11:38:39;12.70;99.90
28069;DHT22;15382;47.578;8.086;2022-09-17T11:48:53;13.00;99.90
28069;DHT22;15382;47.578;8.086;2022-09-17T12:09:21;13.60;99.90
28069;DHT22;15382;47.578;8.086;2022-09-17T12:19:45;13.00;99.90
28069;DHT22;15382;47.578;8.086;2022-09-17T12:40:15;12.20;99.90
28069;DHT22;15382;47.578;8.086;2022-09-17T13:00:27;12.60;99.90
28069;DHT22;15382;47.578;8.086;2022-09-17T13:21:13;11.70;99.90
28069;DHT22;15382;47.578;8.086;2022-09-17T13:41:42;11.40;99.90
28069;DHT22;15382;47.578;8.086;2022-09-17T13:51:44;11.60;99.90
28069;DHT22;15382;47.578;8.086;2022-09-17T14:12:01;12.30;99.90
28069;DHT22;15382;47.578;8.086;2022-09-17T14:32:09;12.60;99.90
28069;DHT22;15382;47.578;8.086;2022-09-17T14:42:19;12.50;99.90
28069;DHT22;15382;47.578;8.086;2022-09-17T14:52:31;12.70;99.90
28069;DHT22;15382;47.578;8.086;2022-09-17T15:02:42;12.50;99.90
28069;DHT22;15382;47.578;8.086;2022-09-17T15:12:45;12.40;99.90
28069;DHT22;15382;47.578;8.086;2022-09-17T15:22:54;12.40;99.90
28069;DHT22;15382;47.578;8.086;2022-09-17T15:32:58;12.60;99.90
28069;DHT22;15382;47.578;8.086;2022-09-17T16:13:39;12.00;99.90
28069;DHT22;15382;47.578;8.086;2022-09-17T16:23:41;11.90;99.90
28069;DHT22;15382;47.578;8.086;2022-09-17T16:33:42;11.80;99.90
28069;DHT22;15382;47.578;8.086;2022-09-17T16:43:42;11.80;99.90
28069;DHT22;15382;47.578;8.086;2022-09-17T16:53:44;11.70;99.90
28069;DHT22;15382;47.578;8.086;2022-09-17T17:03:45;11.80;99.90
28069;DHT22;15382;47.578;8.086;2022-09-17T17:13:48;11.50;99.90
28069;DHT22;15382;47.578;8.086;2022-09-17T17:23:49;11.30;99.90
28069;DHT22;15382;47.578;8.086;2022-09-17T17:33:50;11.30;99.90
28069;DHT22;15382;47.578;8.086;2022-09-17T17:43:52;11.10;99.90
28069;DHT22;15382;47.578;8.086;2022-09-17T17:53:53;11.00;99.90
28069;DHT22;15382;47.578;8.086;2022-09-17T18:03:59;11.10;99.90
28069;DHT22;15382;47.578;8.086;2022-09-17T18:14:00;11.10;99.90
28069;DHT22;15382;47.578;8.086;2022-09-17T18:24:01;11.10;99.90
28069;DHT22;15382;47.578;8.086;2022-09-17T18:34:05;11.00;99.90
28069;DHT22;15382;47.578;8.086;2022-09-17T18:44:07;10.90;99.90
28069;DHT22;15382;47.578;8.086;2022-09-17T18:54:09;10.70;99.90
28069;DHT22;15382;47.578;8.086;2022-09-17T19:04:10;10.30;99.90
28069;DHT22;15382;47.578;8.086;2022-09-17T19:14:16;9.90;99.90
28069;DHT22;15382;47.578;8.086;2022-09-17T19:24:22;10.10;99.90
28069;DHT22;15382;47.578;8.086;2022-09-17T19:34:23;10.10;99.90
28069;DHT22;15382;47.578;8.086;2022-09-17T19:44:24;10.10;99.90
28069;DHT22;15382;47.578;8.086;2022-09-17T19:54:25;10.20;99.90
28069;DHT22;15382;47.578;8.086;2022-09-17T20:04:26;10.30;99.90
28069;DHT22;15382;47.578;8.086;2022-09-17T20:14:27;10.30;99.90
28069;DHT22;15382;47.578;8.086;2022-09-17T20:24:27;10.10;99.90
28069;DHT22;15382;47.578;8.086;2022-09-17T20:34:28;10.00;99.90
28069;DHT22;15382;47.578;8.086;2022-09-17T20:44:29;9.90;99.90
28069;DHT22;15382;47.578;8.086;2022-09-17T20:54:30;9.80;99.90
28069;DHT22;15382;47.578;8.086;2022-09-17T21:04:30;9.80;99.90
28069;DHT22;15382;47.578;8.086;2022-09-17T21:14:31;9.80;99.90
28069;DHT22;15382;47.578;8.086;2022-09-17T21:24:32;9.80;99.90
28069;DHT22;15382;47.578;8.086;2022-09-17T21:34:33;9.70;99.90
28069;DHT22;15382;47.578;8.086;2022-09-17T21:44:34;9.70;99.90
28069;DHT22;15382;47.578;8.086;2022-09-17T21:54:34;9.80;99.90
28069;DHT22;15382;47.578;8.086;2022-09-17T22:04:35;9.80;99.90
28069;DHT22;15382;47.578;8.086;2022-09-17T22:14:36;9.80;99.90
28069;DHT22;15382;47.578;8.086;2022-09-17T22:24:38;9.70;99.90
28069;DHT22;15382;47.578;8.086;2022-09-17T22:34:43;9.80;99.90
28069;DHT22;15382;47.578;8.086;2022-09-17T22:44:43;9.80;99.90
28069;DHT22;15382;47.578;8.086;2022-09-17T22:54:44;9.80;99.90
28069;DHT22;15382;47.578;8.086;2022-09-17T23:04:45;9.80;99.90
28069;DHT22;15382;47.578;8.086;2022-09-17T23:14:46;9.80;99.90
28069;DHT22;15382;47.578;8.086;2022-09-17T23:24:47;9.70;99.90
28069;DHT22;15382;47.578;8.086;2022-09-17T23:34:49;9.70;99.90
28069;DHT22;15382;47.578;8.086;2022-09-17T23:44:50;9.70;99.90
28069;DHT22;15382;47.578;8.086;2022-09-17T23:54:51;9.70;99.90
